createdAt,value
2023-05-04T00:01:19.158Z,12.32
2023-05-04T00:06:40.910Z,12.34
2023-05-04T00:12:02.639Z,12.47
2023-05-04T00:17:24.375Z,11.99
2023-05-04T00:22:46.116Z,12.06
2023-05-04T00:28:07.843Z,11.87
2023-05-04T00:33:29.576Z,11.98
2023-05-04T00:38:53.693Z,12.05
2023-05-04T00:44:15.553Z,12.12
2023-05-04T00:49:37.683Z,11.99
2023-05-04T00:55:01.341Z,11.96
2023-05-04T01:00:23.193Z,11.95
2023-05-04T01:05:54.947Z,11.90
2023-05-04T01:11:21.798Z,11.86
2023-05-04T01:16:43.678Z,11.79
2023-05-04T01:22:05.579Z,11.82
2023-05-04T01:27:37.376Z,11.79
2023-05-04T01:33:01.251Z,11.68
2023-05-04T01:38:23.026Z,11.65
2023-05-04T01:43:44.715Z,11.64
2023-05-04T01:49:07.883Z,11.55
2023-05-04T01:54:29.592Z,11.39
2023-05-04T01:59:51.327Z,11.33
2023-05-04T02:05:13.141Z,11.18
2023-05-04T02:10:34.930Z,11.29
2023-05-04T02:15:56.870Z,11.29
2023-05-04T02:21:18.536Z,11.43
2023-05-04T02:26:40.418Z,11.30
2023-05-04T02:32:02.210Z,11.20
2023-05-04T02:37:24.091Z,11.19
2023-05-04T02:42:45.803Z,11.18
2023-05-04T02:48:07.570Z,11.08
2023-05-04T02:53:29.420Z,11.02
2023-05-04T02:58:51.390Z,10.99
2023-05-04T03:04:13.174Z,11.00
2023-05-04T03:09:34.962Z,10.80
2023-05-04T03:14:56.927Z,10.85
2023-05-04T03:20:18.660Z,10.89
2023-05-04T03:25:40.658Z,10.88
2023-05-04T03:31:03.114Z,10.76
2023-05-04T03:36:24.923Z,10.64
2023-05-04T03:41:46.672Z,10.58
2023-05-04T03:47:08.370Z,10.44
2023-05-04T03:52:30.105Z,10.34
2023-05-04T03:57:51.837Z,10.49
2023-05-04T04:03:13.632Z,10.69
2023-05-04T04:08:35.784Z,10.59
2023-05-04T04:13:57.502Z,10.43
2023-05-04T04:19:19.247Z,10.72
2023-05-04T04:24:40.923Z,10.58
2023-05-04T04:30:04.421Z,10.44
2023-05-04T04:35:27.452Z,10.32
2023-05-04T04:40:49.166Z,10.60
2023-05-04T04:46:10.919Z,10.63
2023-05-04T04:51:32.679Z,10.64
2023-05-04T04:56:54.935Z,10.51
2023-05-04T05:02:16.700Z,10.73
2023-05-04T05:07:38.554Z,10.80
2023-05-04T05:13:01.132Z,10.65
2023-05-04T05:18:23.940Z,10.78
2023-05-04T05:23:45.745Z,10.84
2023-05-04T05:29:08.356Z,10.91
2023-05-04T05:34:30.108Z,10.92
2023-05-04T05:39:51.815Z,10.68
2023-05-04T05:45:13.984Z,10.93
2023-05-04T05:50:35.776Z,11.07
2023-05-04T05:55:57.627Z,11.14
2023-05-04T06:01:19.500Z,11.14
2023-05-04T06:06:42.639Z,11.28
2023-05-04T06:12:07.121Z,11.34
2023-05-04T06:17:28.997Z,11.47
2023-05-04T06:22:50.806Z,11.60
2023-05-04T06:28:12.508Z,11.66
2023-05-04T06:33:34.198Z,11.69
2023-05-04T06:38:58.124Z,11.73
2023-05-04T06:44:19.943Z,11.98
2023-05-04T06:49:41.680Z,12.16
2023-05-04T06:55:03.568Z,12.18
2023-05-04T07:00:25.615Z,12.33
2023-05-04T07:05:48.671Z,12.27
2023-05-04T07:11:10.449Z,12.34
2023-05-04T07:16:33.044Z,12.53
2023-05-04T07:21:56.081Z,12.63
2023-05-04T07:27:17.761Z,12.72
2023-05-04T07:32:39.489Z,12.83
2023-05-04T07:38:01.440Z,13.20
2023-05-04T07:43:23.583Z,13.49
2023-05-04T07:48:45.334Z,13.64
2023-05-04T07:54:07.100Z,13.76
2023-05-04T07:59:29.126Z,13.87
2023-05-04T08:04:50.834Z,13.92
2023-05-04T08:10:12.556Z,14.07
2023-05-04T08:15:34.288Z,14.17
2023-05-04T08:20:56.534Z,14.28
2023-05-04T08:26:19.687Z,14.34
2023-05-04T08:31:41.486Z,14.45
2023-05-04T08:37:04.634Z,14.62
2023-05-04T08:42:28.033Z,14.73
2023-05-04T08:47:50.649Z,14.84
2023-05-04T08:53:14.369Z,14.94
2023-05-04T08:58:38.237Z,15.06
2023-05-04T09:04:02.512Z,15.18
2023-05-04T09:09:28.330Z,15.23
2023-05-04T09:14:50.211Z,15.33
2023-05-04T09:20:13.242Z,15.44
2023-05-04T09:25:49.821Z,15.49
2023-05-04T09:31:11.958Z,15.67
2023-05-04T09:36:33.736Z,15.80
2023-05-04T09:41:56.473Z,15.95
2023-05-04T09:47:18.464Z,16.07
2023-05-04T09:52:42.005Z,16.09
2023-05-04T09:58:04.681Z,16.25
2023-05-04T10:03:27.839Z,16.31
2023-05-04T10:08:50.933Z,16.40
2023-05-04T10:14:13.344Z,16.57
2023-05-04T10:19:50.190Z,16.55
2023-05-04T10:25:19.007Z,16.68
2023-05-04T10:30:40.918Z,16.71
2023-05-04T10:36:02.985Z,16.89
2023-05-04T10:41:24.820Z,17.02
2023-05-04T10:47:01.961Z,17.25
2023-05-04T10:52:23.969Z,17.35
2023-05-04T10:57:56.184Z,17.51
2023-05-04T11:03:19.074Z,17.60
2023-05-04T11:08:41.409Z,17.74
2023-05-04T11:14:03.236Z,17.80
2023-05-04T11:19:24.935Z,18.21
2023-05-04T11:24:48.631Z,18.05
2023-05-04T11:30:10.992Z,18.68
2023-05-04T11:35:32.739Z,18.54
2023-05-04T11:40:54.561Z,18.61
2023-05-04T11:46:16.840Z,18.82
2023-05-04T11:51:38.742Z,18.89
2023-05-04T11:57:03.284Z,18.94
2023-05-04T12:02:26.886Z,19.01
2023-05-04T12:07:48.661Z,19.27
2023-05-04T12:13:17.495Z,19.32
2023-05-04T12:18:40.205Z,19.34
2023-05-04T12:24:03.245Z,19.34
2023-05-04T12:29:25.050Z,19.32
2023-05-04T12:34:46.768Z,19.44
2023-05-04T12:40:21.135Z,19.41
2023-05-04T12:45:50.635Z,19.39
2023-05-04T12:51:12.384Z,19.36
2023-05-04T12:56:34.110Z,19.43
2023-05-04T13:01:55.829Z,19.43
2023-05-04T13:07:17.555Z,19.49
2023-05-04T13:12:39.546Z,19.48
2023-05-04T13:18:01.514Z,19.86
2023-05-04T13:23:24.111Z,19.82
2023-05-04T13:28:45.851Z,19.87
2023-05-04T13:34:07.581Z,19.97
2023-05-04T13:39:29.335Z,20.10
2023-05-04T13:44:51.052Z,20.06
2023-05-04T13:50:13.509Z,20.14
2023-05-04T13:55:35.200Z,20.18
2023-05-04T14:00:57.712Z,20.18
2023-05-04T14:06:19.466Z,20.19
2023-05-04T14:11:41.266Z,20.23
2023-05-04T14:17:02.956Z,20.33
2023-05-04T14:22:24.754Z,20.45
2023-05-04T14:27:46.432Z,20.41
2023-05-04T14:33:08.203Z,20.50
2023-05-04T14:38:29.931Z,20.34
2023-05-04T14:43:52.387Z,20.32
2023-05-04T14:49:21.404Z,20.41
2023-05-04T14:54:46.684Z,20.35
2023-05-04T15:00:09.500Z,20.31
2023-05-04T15:05:31.646Z,20.27
2023-05-04T15:10:57.225Z,20.46
2023-05-04T15:16:19.020Z,20.48
2023-05-04T15:21:41.601Z,20.35
2023-05-04T15:27:03.641Z,20.30
2023-05-04T15:32:25.750Z,20.24
2023-05-04T15:37:47.467Z,20.18
2023-05-04T15:43:09.387Z,20.28
2023-05-04T15:48:31.222Z,20.20
2023-05-04T15:53:52.932Z,20.17
2023-05-04T15:59:17.274Z,20.13
2023-05-04T16:04:39.084Z,20.18
2023-05-04T16:10:01.082Z,20.15
2023-05-04T16:15:22.953Z,20.19
2023-05-04T16:20:45.808Z,20.20
2023-05-04T16:26:07.656Z,20.18
2023-05-04T16:31:29.484Z,20.20
2023-05-04T16:36:51.279Z,20.31
2023-05-04T16:42:13.093Z,20.15
2023-05-04T16:47:34.855Z,20.06
2023-05-04T16:52:56.655Z,20.04
2023-05-04T16:58:18.366Z,20.02
2023-05-04T17:03:40.341Z,19.90
2023-05-04T17:09:03.716Z,19.96
2023-05-04T17:14:26.516Z,19.94
2023-05-04T17:19:48.312Z,19.91
2023-05-04T17:25:11.296Z,19.88
2023-05-04T17:30:35.563Z,19.87
2023-05-04T17:35:57.293Z,19.81
2023-05-04T17:41:19.216Z,19.76
2023-05-04T17:46:40.976Z,19.71
2023-05-04T17:52:02.791Z,19.65
2023-05-04T17:57:24.537Z,19.55
2023-05-04T18:02:46.889Z,19.48
2023-05-04T18:08:08.791Z,19.41
2023-05-04T18:13:30.494Z,19.36
2023-05-04T18:18:52.618Z,19.28
2023-05-04T18:24:14.420Z,19.19
2023-05-04T18:29:36.139Z,19.08
2023-05-04T18:34:58.072Z,19.00
2023-05-04T18:40:19.877Z,18.90
2023-05-04T18:45:41.608Z,18.82
2023-05-04T18:51:03.560Z,18.76
2023-05-04T18:56:25.885Z,18.70
2023-05-04T19:01:47.757Z,18.64
2023-05-04T19:07:12.437Z,18.62
2023-05-04T19:12:34.347Z,18.57
2023-05-04T19:17:56.123Z,18.49
2023-05-04T19:23:18.050Z,18.41
2023-05-04T19:28:39.960Z,18.38
2023-05-04T19:34:01.934Z,18.31
2023-05-04T19:39:23.776Z,18.26
2023-05-04T19:44:45.782Z,18.24
2023-05-04T19:50:10.818Z,18.20
2023-05-04T19:55:33.072Z,18.10
2023-05-04T20:00:54.838Z,18.01
2023-05-04T20:06:16.829Z,17.93
2023-05-04T20:11:38.587Z,17.94
2023-05-04T20:17:00.424Z,17.82
2023-05-04T20:22:22.247Z,17.87
2023-05-04T20:27:45.401Z,17.80
2023-05-04T20:33:07.188Z,17.73
2023-05-04T20:38:28.948Z,17.61
2023-05-04T20:43:50.749Z,17.57
2023-05-04T20:49:12.724Z,17.58
2023-05-04T20:54:34.472Z,17.52
2023-05-04T20:59:56.543Z,17.49
2023-05-04T21:05:18.435Z,17.42
2023-05-04T21:10:40.157Z,17.27
2023-05-04T21:16:01.959Z,17.15
2023-05-04T21:21:23.884Z,17.13
2023-05-04T21:26:45.969Z,17.02
2023-05-04T21:32:07.765Z,17.05
2023-05-04T21:37:30.029Z,16.95
2023-05-04T21:42:51.703Z,16.95
2023-05-04T21:48:13.458Z,16.89
2023-05-04T21:53:35.323Z,17.03
2023-05-04T21:58:57.092Z,17.04
2023-05-04T22:04:18.816Z,16.87
2023-05-04T22:09:40.701Z,16.66
2023-05-04T22:15:02.458Z,16.55
2023-05-04T22:20:26.634Z,16.49
2023-05-04T22:25:48.417Z,16.50
2023-05-04T22:31:10.326Z,16.50
2023-05-04T22:36:32.158Z,16.38
2023-05-04T22:41:53.857Z,16.36
2023-05-04T22:47:15.651Z,16.38
2023-05-04T22:52:38.101Z,16.39
2023-05-04T22:57:59.972Z,16.32
2023-05-04T23:03:21.783Z,16.25
2023-05-04T23:08:45.254Z,16.24
2023-05-04T23:14:07.322Z,16.18
2023-05-04T23:19:30.002Z,16.09
2023-05-04T23:24:51.759Z,16.15
2023-05-04T23:30:14.088Z,16.14
2023-05-04T23:35:35.800Z,16.10
2023-05-04T23:40:57.777Z,16.11
2023-05-04T23:46:19.476Z,16.06
2023-05-04T23:51:41.205Z,16.09
2023-05-04T23:57:03.541Z,16.15
